createdAt,value
2023-01-17T00:01:34.242Z,12.70
2023-01-17T00:04:20.259Z,12.80
2023-01-17T00:07:03.848Z,12.80
2023-01-17T00:09:56.968Z,12.90
2023-01-17T00:12:26.287Z,12.90
2023-01-17T00:14:55.368Z,13.00
2023-01-17T00:17:25.410Z,13.00
2023-01-17T00:20:11.487Z,13.00
2023-01-17T00:23:01.550Z,13.00
2023-01-17T00:25:48.634Z,13.00
2023-01-17T00:28:15.874Z,13.00
2023-01-17T00:30:45.366Z,13.00
2023-01-17T00:33:12.880Z,13.10
2023-01-17T00:35:40.161Z,13.00
2023-01-17T00:38:09.362Z,13.10
2023-01-17T00:40:37.466Z,13.10
2023-01-17T00:43:25.961Z,13.20
2023-01-17T00:46:12.025Z,13.20
2023-01-17T00:48:58.290Z,13.20
2023-01-17T00:51:46.977Z,13.20
2023-01-17T00:54:34.128Z,13.20
2023-01-17T00:57:20.273Z,13.20
2023-01-17T01:00:06.493Z,13.20
2023-01-17T01:02:55.348Z,13.20
2023-01-17T01:05:41.355Z,13.10
2023-01-17T01:08:39.147Z,13.10
2023-01-17T01:11:27.484Z,13.00
2023-01-17T01:14:13.517Z,12.90
2023-01-17T01:16:59.492Z,12.80
2023-01-17T01:19:44.975Z,12.80
2023-01-17T01:22:30.714Z,12.60
2023-01-17T01:25:16.270Z,12.60
2023-01-17T01:28:03.438Z,12.70
2023-01-17T01:30:49.016Z,12.70
2023-01-17T01:33:19.313Z,12.80
2023-01-17T01:35:48.446Z,12.80
2023-01-17T01:38:16.854Z,12.90
2023-01-17T01:40:46.088Z,12.90
2023-01-17T01:43:18.868Z,12.90
2023-01-17T01:45:49.647Z,13.00
2023-01-17T01:48:31.429Z,13.00
2023-01-17T01:51:01.801Z,13.00
2023-01-17T01:53:31.159Z,12.80
2023-01-17T01:56:00.201Z,12.80
2023-01-17T01:58:33.225Z,12.80
2023-01-17T02:01:01.782Z,12.70
2023-01-17T02:03:32.746Z,12.70
2023-01-17T02:06:04.117Z,12.70
2023-01-17T02:08:32.702Z,12.60
2023-01-17T02:11:04.248Z,12.60
2023-01-17T02:13:34.190Z,12.60
2023-01-17T02:16:05.065Z,12.60
2023-01-17T02:18:40.564Z,12.60
2023-01-17T02:21:19.482Z,12.60
2023-01-17T02:24:11.544Z,12.60
2023-01-17T02:26:48.968Z,12.60
2023-01-17T02:29:43.415Z,12.70
2023-01-17T02:32:15.609Z,12.60
2023-01-17T02:34:47.545Z,12.60
2023-01-17T02:37:18.143Z,12.50
2023-01-17T02:39:50.017Z,12.60
2023-01-17T02:42:20.167Z,12.50
2023-01-17T02:44:48.569Z,12.40
2023-01-17T02:47:23.354Z,12.30
2023-01-17T02:49:53.818Z,12.30
2023-01-17T02:52:34.409Z,12.30
2023-01-17T02:55:11.795Z,12.30
2023-01-17T02:57:49.106Z,12.30
2023-01-17T03:00:22.552Z,12.40
2023-01-17T03:02:58.734Z,12.50
2023-01-17T03:05:30.812Z,12.60
2023-01-17T03:07:59.837Z,12.60
2023-01-17T03:10:28.973Z,12.70
2023-01-17T03:12:58.767Z,12.60
2023-01-17T03:15:27.260Z,12.60
2023-01-17T03:18:02.037Z,12.50
2023-01-17T03:20:30.488Z,12.50
2023-01-17T03:22:58.893Z,12.50
2023-01-17T03:25:27.332Z,12.50
2023-01-17T03:27:55.704Z,12.50
2023-01-17T03:30:24.194Z,12.60
2023-01-17T03:32:52.700Z,12.70
2023-01-17T03:35:22.484Z,12.80
2023-01-17T03:37:50.905Z,12.80
2023-01-17T03:40:19.366Z,12.90
2023-01-17T03:42:47.732Z,13.00
2023-01-17T03:45:16.348Z,13.00
2023-01-17T03:47:44.735Z,13.10
2023-01-17T03:50:15.910Z,13.20
2023-01-17T03:52:48.093Z,13.20
2023-01-17T03:55:19.162Z,13.30
2023-01-17T03:57:47.580Z,13.40
2023-01-17T04:00:16.301Z,13.40
2023-01-17T04:02:44.990Z,13.50
2023-01-17T04:05:13.388Z,13.50
2023-01-17T04:07:44.858Z,13.50
2023-01-17T04:10:14.654Z,13.40
2023-01-17T04:12:43.230Z,13.40
2023-01-17T04:15:12.074Z,13.30
2023-01-17T04:17:40.467Z,13.30
2023-01-17T04:20:12.409Z,13.40
2023-01-17T04:22:40.767Z,13.40
2023-01-17T04:25:11.925Z,13.50
2023-01-17T04:27:41.650Z,13.50
2023-01-17T04:30:10.815Z,13.50
2023-01-17T04:32:39.151Z,13.50
2023-01-17T04:35:14.569Z,13.50
2023-01-17T04:37:42.937Z,13.50
2023-01-17T04:40:12.215Z,13.60
2023-01-17T04:42:41.986Z,13.50
2023-01-17T04:45:10.717Z,13.50
2023-01-17T04:47:39.550Z,13.40
2023-01-17T04:50:09.855Z,13.30
2023-01-17T04:52:38.309Z,13.30
2023-01-17T04:55:07.192Z,13.20
2023-01-17T04:57:35.652Z,13.20
2023-01-17T05:00:06.067Z,13.20
2023-01-17T05:02:36.810Z,13.20
2023-01-17T05:05:05.423Z,13.20
2023-01-17T05:07:35.685Z,13.10
2023-01-17T05:10:04.611Z,13.10
2023-01-17T05:12:34.175Z,13.10
2023-01-17T05:15:02.549Z,13.10
2023-01-17T05:17:32.302Z,13.20
2023-01-17T05:20:00.697Z,13.10
2023-01-17T05:22:31.344Z,13.00
2023-01-17T05:24:59.726Z,12.90
2023-01-17T05:27:28.164Z,12.90
2023-01-17T05:29:56.630Z,12.80
2023-01-17T05:32:25.117Z,12.80
2023-01-17T05:34:56.735Z,12.80
2023-01-17T05:37:25.169Z,12.80
2023-01-17T05:39:53.595Z,12.80
2023-01-17T05:42:21.946Z,12.70
2023-01-17T05:44:50.332Z,12.70
2023-01-17T05:47:19.829Z,12.80
2023-01-17T05:49:50.830Z,12.80
2023-01-17T05:52:22.736Z,12.80
2023-01-17T05:54:51.148Z,12.80
2023-01-17T05:57:19.512Z,12.80
2023-01-17T05:59:47.902Z,12.90
2023-01-17T06:02:18.657Z,12.80
2023-01-17T06:04:48.540Z,12.80
2023-01-17T06:07:16.966Z,13.00
2023-01-17T06:09:47.094Z,13.00
2023-01-17T06:12:15.524Z,12.90
2023-01-17T06:14:43.966Z,13.00
2023-01-17T06:17:14.327Z,12.90
2023-01-17T06:19:42.760Z,12.90
2023-01-17T06:22:12.941Z,12.90
2023-01-17T06:24:41.377Z,12.90
2023-01-17T06:27:12.401Z,12.80
2023-01-17T06:29:43.099Z,12.70
2023-01-17T06:32:15.163Z,12.60
2023-01-17T06:34:43.579Z,12.50
2023-01-17T06:37:12.077Z,12.50
2023-01-17T06:39:40.467Z,12.50
2023-01-17T06:42:08.820Z,12.50
2023-01-17T06:44:38.699Z,12.50
2023-01-17T06:47:07.045Z,12.50
2023-01-17T06:49:35.388Z,12.50
2023-01-17T06:52:03.806Z,12.50
2023-01-17T06:54:34.455Z,12.50
2023-01-17T06:57:02.994Z,12.50
2023-01-17T06:59:31.402Z,12.50
2023-01-17T07:02:01.196Z,12.60
2023-01-17T07:04:29.529Z,12.50
2023-01-17T07:06:57.911Z,12.60
2023-01-17T07:09:26.339Z,12.60
2023-01-17T07:11:59.674Z,12.60
2023-01-17T07:14:28.083Z,12.60
2023-01-17T07:16:56.723Z,12.60
2023-01-17T07:19:26.564Z,12.80
2023-01-17T07:21:57.033Z,12.90
2023-01-17T07:24:27.081Z,13.00
2023-01-17T07:26:55.519Z,13.20
2023-01-17T07:29:23.962Z,13.20
2023-01-17T07:31:52.345Z,13.30
2023-01-17T07:34:22.303Z,13.40
2023-01-17T07:36:54.479Z,13.40
2023-01-17T07:39:22.920Z,13.40
2023-01-17T07:41:53.476Z,13.30
2023-01-17T07:44:21.878Z,13.40
2023-01-17T07:46:50.272Z,13.40
2023-01-17T07:49:18.666Z,13.50
2023-01-17T07:51:51.652Z,13.50
2023-01-17T07:54:23.341Z,13.60
2023-01-17T07:56:51.731Z,13.60
2023-01-17T07:59:20.135Z,13.60
2023-01-17T08:01:49.720Z,13.60
2023-01-17T08:04:18.132Z,13.70
2023-01-17T08:06:48.791Z,13.70
2023-01-17T08:09:17.275Z,13.80
2023-01-17T08:11:47.092Z,13.90
2023-01-17T08:14:15.503Z,14.00
2023-01-17T08:16:43.851Z,14.20
2023-01-17T08:19:12.270Z,14.20
2023-01-17T08:21:40.660Z,14.20
2023-01-17T08:24:15.332Z,14.30
2023-01-17T08:26:43.792Z,14.30
2023-01-17T08:29:13.624Z,14.30
2023-01-17T08:31:42.100Z,14.40
2023-01-17T08:34:10.560Z,14.50
2023-01-17T08:36:38.948Z,14.50
2023-01-17T08:39:07.554Z,14.50
2023-01-17T08:41:36.309Z,14.50
2023-01-17T08:44:04.696Z,14.50
2023-01-17T08:46:34.124Z,14.50
2023-01-17T08:49:03.882Z,14.50
2023-01-17T08:51:32.988Z,14.50
2023-01-17T08:54:01.373Z,14.60
2023-01-17T08:56:30.217Z,14.60
2023-01-17T08:58:58.607Z,14.60
2023-01-17T09:01:27.174Z,14.70
2023-01-17T09:03:55.634Z,14.70
2023-01-17T09:06:25.387Z,14.70
2023-01-17T09:08:54.895Z,14.70
2023-01-17T09:11:23.331Z,14.70
2023-01-17T09:13:51.683Z,14.70
2023-01-17T09:16:20.164Z,14.70
2023-01-17T09:18:48.620Z,14.80
2023-01-17T09:21:17.861Z,14.80
2023-01-17T09:23:47.678Z,14.90
2023-01-17T09:26:19.045Z,14.90
2023-01-17T09:28:47.497Z,14.90
2023-01-17T09:31:17.485Z,14.90
2023-01-17T09:33:46.224Z,14.80
2023-01-17T09:36:14.710Z,14.90
2023-01-17T09:38:43.132Z,14.90
2023-01-17T09:41:20.653Z,14.90
2023-01-17T09:43:50.606Z,14.90
2023-01-17T09:46:23.901Z,14.90
2023-01-17T09:48:54.438Z,14.90
2023-01-17T09:51:24.284Z,14.80
2023-01-17T09:53:53.414Z,14.80
2023-01-17T09:56:27.897Z,14.90
2023-01-17T09:59:06.125Z,15.00
2023-01-17T10:01:38.219Z,15.10
2023-01-17T10:04:15.028Z,15.10
2023-01-17T10:06:47.258Z,15.20
2023-01-17T10:09:24.705Z,15.20
2023-01-17T10:12:04.840Z,15.20
2023-01-17T10:14:48.000Z,15.20
2023-01-17T10:17:19.587Z,15.30
2023-01-17T10:19:56.605Z,15.30
2023-01-17T10:22:31.181Z,15.30
2023-01-17T10:25:17.252Z,15.40
2023-01-17T10:27:49.409Z,15.40
2023-01-17T10:30:19.424Z,15.50
2023-01-17T10:32:49.534Z,15.60
2023-01-17T10:35:21.604Z,15.50
2023-01-17T10:37:51.025Z,15.50
2023-01-17T10:40:21.712Z,15.50
2023-01-17T10:42:53.444Z,15.50
2023-01-17T10:45:25.764Z,15.50
2023-01-17T10:48:03.296Z,15.40
2023-01-17T10:50:34.492Z,15.30
2023-01-17T10:53:06.640Z,15.20
2023-01-17T10:55:39.075Z,15.30
2023-01-17T10:58:12.046Z,15.30
2023-01-17T11:00:44.666Z,15.30
2023-01-17T11:03:13.585Z,15.20
2023-01-17T11:05:43.183Z,15.10
2023-01-17T11:08:13.494Z,15.10
2023-01-17T11:10:43.768Z,15.10
2023-01-17T11:13:32.789Z,15.10
2023-01-17T11:16:04.258Z,15.10
2023-01-17T11:18:33.951Z,15.00
2023-01-17T11:21:14.243Z,15.10
2023-01-17T11:23:43.505Z,15.20
2023-01-17T11:26:12.929Z,15.20
2023-01-17T11:28:41.819Z,15.10
2023-01-17T11:31:25.987Z,15.10
2023-01-17T11:34:09.637Z,15.00
2023-01-17T11:36:37.991Z,15.00
2023-01-17T11:39:07.368Z,15.00
2023-01-17T11:41:36.483Z,15.00
2023-01-17T11:44:20.766Z,14.90
2023-01-17T11:46:50.766Z,14.80
2023-01-17T11:49:26.449Z,14.50
2023-01-17T11:51:56.309Z,14.40
2023-01-17T11:54:27.238Z,14.30
2023-01-17T11:56:58.488Z,14.20
2023-01-17T11:59:31.614Z,14.10
2023-01-17T12:02:32.955Z,14.00
2023-01-17T12:05:09.326Z,14.00
2023-01-17T12:07:42.374Z,14.00
2023-01-17T12:10:15.652Z,14.00
2023-01-17T12:13:08.265Z,14.10
2023-01-17T12:15:46.208Z,14.10
2023-01-17T12:18:30.234Z,14.10
2023-01-17T12:21:05.500Z,14.20
2023-01-17T12:23:43.075Z,14.20
2023-01-17T12:26:20.755Z,14.20
2023-01-17T12:29:02.179Z,14.10
2023-01-17T12:31:34.453Z,14.10
2023-01-17T12:34:10.222Z,14.00
2023-01-17T12:36:44.078Z,13.90
2023-01-17T12:39:14.462Z,13.90
2023-01-17T12:41:49.347Z,13.90
2023-01-17T12:44:19.662Z,13.90
2023-01-17T12:46:50.198Z,13.90
2023-01-17T12:49:22.339Z,13.90
2023-01-17T12:51:54.137Z,13.90
2023-01-17T12:54:26.597Z,14.00
2023-01-17T12:56:57.732Z,14.00
2023-01-17T12:59:29.030Z,13.90
2023-01-17T13:01:58.617Z,13.90
2023-01-17T13:04:29.720Z,13.90
2023-01-17T13:07:03.421Z,13.80
2023-01-17T13:09:35.089Z,13.80
2023-01-17T13:12:05.646Z,13.80
2023-01-17T13:14:34.110Z,13.90
2023-01-17T13:17:05.824Z,13.90
2023-01-17T13:19:39.211Z,14.00
2023-01-17T13:22:10.366Z,14.00
2023-01-17T13:24:43.508Z,14.30
2023-01-17T13:27:38.774Z,14.50
2023-01-17T13:30:18.245Z,14.60
2023-01-17T13:32:53.830Z,14.60
2023-01-17T13:35:23.571Z,14.60
2023-01-17T13:38:09.835Z,14.70
2023-01-17T13:40:44.882Z,14.60
2023-01-17T13:43:15.117Z,14.70
2023-01-17T13:45:51.541Z,14.70
2023-01-17T13:48:27.287Z,14.70
2023-01-17T13:50:56.671Z,14.70
2023-01-17T13:53:39.942Z,14.70
2023-01-17T13:56:13.534Z,14.70
2023-01-17T13:58:58.863Z,14.70
2023-01-17T14:01:50.225Z,14.70
2023-01-17T14:04:18.770Z,14.70
2023-01-17T14:06:49.044Z,14.80
2023-01-17T14:09:25.623Z,14.90
2023-01-17T14:11:56.521Z,14.90
2023-01-17T14:14:37.742Z,14.90
2023-01-17T14:17:25.809Z,14.90
2023-01-17T14:19:54.868Z,14.90
2023-01-17T14:22:25.227Z,14.90
2023-01-17T14:24:58.325Z,14.90
2023-01-17T14:27:28.907Z,14.80
2023-01-17T14:29:59.018Z,14.70
2023-01-17T14:32:29.214Z,14.70
2023-01-17T14:34:58.401Z,14.60
2023-01-17T14:37:35.954Z,14.70
2023-01-17T14:40:14.913Z,14.70
2023-01-17T14:42:44.730Z,14.70
2023-01-17T14:45:14.875Z,14.70
2023-01-17T14:47:45.262Z,14.70
2023-01-17T14:50:20.673Z,14.70
2023-01-17T14:52:49.266Z,14.70
2023-01-17T14:55:18.636Z,14.70
2023-01-17T14:57:56.855Z,14.70
2023-01-17T15:00:29.202Z,14.60
2023-01-17T15:02:59.310Z,14.70
2023-01-17T15:05:29.005Z,14.70
2023-01-17T15:07:58.614Z,14.70
2023-01-17T15:10:29.417Z,14.70
2023-01-17T15:13:06.262Z,14.60
2023-01-17T15:15:38.584Z,14.60
2023-01-17T15:18:10.741Z,14.60
2023-01-17T15:20:39.297Z,14.60
2023-01-17T15:23:09.644Z,14.60
2023-01-17T15:25:38.923Z,14.60
2023-01-17T15:28:11.031Z,14.60
2023-01-17T15:30:39.489Z,14.50
2023-01-17T15:33:13.267Z,14.40
2023-01-17T15:35:41.704Z,14.30
2023-01-17T15:38:15.810Z,14.20
2023-01-17T15:40:45.811Z,14.20
2023-01-17T15:43:20.417Z,14.10
2023-01-17T15:45:55.611Z,14.10
2023-01-17T15:48:41.716Z,14.00
2023-01-17T15:51:10.649Z,14.00
2023-01-17T15:53:39.842Z,14.00
2023-01-17T15:56:25.958Z,14.00
2023-01-17T15:58:55.762Z,14.00
2023-01-17T16:01:32.370Z,14.00
2023-01-17T16:04:00.778Z,14.00
2023-01-17T16:06:30.824Z,14.00
2023-01-17T16:08:59.196Z,14.00
2023-01-17T16:11:27.875Z,14.00
2023-01-17T16:13:57.660Z,14.20
2023-01-17T16:16:26.849Z,14.30
2023-01-17T16:19:02.709Z,14.30
2023-01-17T16:21:31.783Z,14.30
2023-01-17T16:24:00.564Z,14.40
2023-01-17T16:26:29.803Z,14.30
2023-01-17T16:28:59.575Z,14.30
2023-01-17T16:31:28.002Z,14.30
2023-01-17T16:33:56.417Z,14.30
2023-01-17T16:36:24.859Z,14.20
2023-01-17T16:38:53.486Z,14.20
2023-01-17T16:41:21.964Z,14.20
2023-01-17T16:44:02.140Z,14.20
2023-01-17T16:46:31.143Z,14.20
2023-01-17T16:49:00.255Z,14.20
2023-01-17T16:51:28.641Z,14.00
2023-01-17T16:53:57.094Z,13.90
2023-01-17T16:56:25.401Z,13.90
2023-01-17T16:58:54.290Z,13.80
2023-01-17T17:01:25.493Z,13.70
2023-01-17T17:03:54.065Z,13.70
2023-01-17T17:06:22.461Z,13.70
2023-01-17T17:08:50.922Z,13.60
2023-01-17T17:11:19.875Z,13.60
2023-01-17T17:13:49.219Z,13.60
2023-01-17T17:16:18.652Z,13.70
2023-01-17T17:18:54.928Z,13.80
2023-01-17T17:21:23.295Z,13.90
2023-01-17T17:23:56.708Z,14.00
2023-01-17T17:26:26.811Z,14.10
2023-01-17T17:28:55.346Z,14.10
2023-01-17T17:31:24.128Z,14.10
2023-01-17T17:33:53.911Z,14.10
2023-01-17T17:36:22.361Z,14.10
2023-01-17T17:38:53.640Z,14.00
2023-01-17T17:41:23.558Z,14.00
2023-01-17T17:43:52.376Z,14.00
2023-01-17T17:46:21.283Z,13.90
2023-01-17T17:48:49.838Z,13.90
2023-01-17T17:51:26.977Z,13.90
2023-01-17T17:53:55.858Z,13.80
2023-01-17T17:56:24.748Z,13.80
2023-01-17T17:58:53.199Z,13.80
2023-01-17T18:01:24.344Z,13.80
2023-01-17T18:03:52.905Z,13.80
2023-01-17T18:06:21.555Z,13.80
2023-01-17T18:08:52.196Z,13.90
2023-01-17T18:11:21.413Z,14.00
2023-01-17T18:13:51.113Z,14.00
2023-01-17T18:16:20.952Z,13.90
2023-01-17T18:18:50.444Z,13.50
2023-01-17T18:21:23.724Z,13.30
2023-01-17T18:23:54.601Z,13.20
2023-01-17T18:26:23.987Z,13.00
2023-01-17T18:28:52.781Z,13.10
2023-01-17T18:31:21.329Z,13.00
2023-01-17T18:33:49.733Z,13.00
2023-01-17T18:36:18.637Z,12.90
2023-01-17T18:38:47.995Z,12.80
2023-01-17T18:41:18.362Z,12.90
2023-01-17T18:43:47.377Z,12.80
2023-01-17T18:46:16.175Z,12.70
2023-01-17T18:48:44.629Z,12.60
2023-01-17T18:51:14.105Z,12.60
2023-01-17T18:53:43.354Z,12.50
2023-01-17T18:56:12.607Z,12.30
2023-01-17T18:58:43.006Z,12.20
2023-01-17T19:01:12.344Z,12.00
2023-01-17T19:03:41.187Z,11.90
2023-01-17T19:06:10.724Z,11.90
2023-01-17T19:08:40.235Z,11.90
2023-01-17T19:11:08.906Z,12.00
2023-01-17T19:13:38.257Z,12.00
2023-01-17T19:16:09.548Z,12.10
2023-01-17T19:18:38.064Z,12.20
2023-01-17T19:21:06.881Z,12.10
2023-01-17T19:23:35.689Z,12.10
2023-01-17T19:26:04.067Z,12.00
2023-01-17T19:28:35.461Z,12.10
2023-01-17T19:31:04.642Z,12.00
2023-01-17T19:33:34.628Z,12.00
2023-01-17T19:36:04.302Z,12.00
2023-01-17T19:38:32.929Z,11.90
2023-01-17T19:41:07.497Z,11.90
2023-01-17T19:43:35.876Z,11.90
2023-01-17T19:46:04.803Z,11.90
2023-01-17T19:48:34.812Z,11.80
2023-01-17T19:51:07.070Z,11.80
2023-01-17T19:53:35.911Z,11.70
2023-01-17T19:56:08.158Z,11.60
2023-01-17T19:58:36.486Z,11.50
2023-01-17T20:01:08.839Z,11.50
2023-01-17T20:03:39.284Z,11.50
2023-01-17T20:06:08.013Z,11.50
2023-01-17T20:08:36.845Z,11.50
2023-01-17T20:11:06.277Z,11.50
2023-01-17T20:13:35.001Z,11.50
2023-01-17T20:16:04.297Z,11.50
2023-01-17T20:18:33.115Z,11.50
2023-01-17T20:21:06.502Z,11.60
2023-01-17T20:23:36.317Z,11.50
2023-01-17T20:26:05.120Z,11.50
2023-01-17T20:28:34.440Z,11.50
2023-01-17T20:31:06.186Z,11.50
2023-01-17T20:33:35.222Z,11.50
2023-01-17T20:36:10.472Z,11.50
2023-01-17T20:38:44.700Z,11.40
2023-01-17T20:41:14.755Z,11.40
2023-01-17T20:43:43.477Z,11.40
2023-01-17T20:46:12.280Z,11.40
2023-01-17T20:48:44.739Z,11.40
2023-01-17T20:51:14.705Z,11.50
2023-01-17T20:53:43.507Z,11.50
2023-01-17T20:56:17.301Z,11.60
2023-01-17T20:58:45.917Z,11.60
2023-01-17T21:01:19.206Z,11.60
2023-01-17T21:03:49.353Z,11.60
2023-01-17T21:06:19.606Z,11.60
2023-01-17T21:08:48.318Z,11.70
2023-01-17T21:11:17.923Z,11.70
2023-01-17T21:13:48.678Z,11.70
2023-01-17T21:16:17.900Z,11.70
2023-01-17T21:18:47.557Z,11.60
2023-01-17T21:21:17.085Z,11.60
2023-01-17T21:23:46.847Z,11.50
2023-01-17T21:26:16.481Z,11.50
2023-01-17T21:28:45.748Z,11.50
2023-01-17T21:31:20.480Z,11.40
2023-01-17T21:33:49.071Z,11.40
2023-01-17T21:36:17.449Z,11.40
2023-01-17T21:38:52.300Z,11.40
2023-01-17T21:41:21.202Z,11.40
2023-01-17T21:43:49.655Z,11.50
2023-01-17T21:46:18.015Z,11.60
2023-01-17T21:48:46.410Z,11.50
2023-01-17T21:51:14.806Z,11.50
2023-01-17T21:53:43.194Z,11.50
2023-01-17T21:56:31.723Z,11.50
2023-01-17T21:59:00.495Z,11.60
2023-01-17T22:01:29.552Z,11.60
2023-01-17T22:03:58.621Z,11.80
2023-01-17T22:06:28.368Z,11.80
2023-01-17T22:08:56.957Z,11.90
2023-01-17T22:11:27.620Z,11.90
2023-01-17T22:13:58.674Z,11.90
2023-01-17T22:16:27.598Z,11.90
2023-01-17T22:18:56.043Z,11.80
2023-01-17T22:21:25.106Z,11.70
2023-01-17T22:23:54.675Z,11.80
2023-01-17T22:26:24.012Z,11.80
2023-01-17T22:28:54.137Z,11.90
2023-01-17T22:31:23.764Z,11.90
2023-01-17T22:33:53.950Z,12.00
2023-01-17T22:36:22.376Z,12.00
2023-01-17T22:38:50.757Z,12.10
2023-01-17T22:41:20.307Z,12.20
2023-01-17T22:43:49.323Z,12.40
2023-01-17T22:46:19.963Z,12.50
2023-01-17T22:48:48.313Z,12.60
2023-01-17T22:51:17.929Z,12.60
2023-01-17T22:53:47.558Z,12.50
2023-01-17T22:56:17.064Z,12.30
2023-01-17T22:58:45.674Z,12.10
2023-01-17T23:01:15.310Z,12.00
2023-01-17T23:03:45.850Z,12.00
2023-01-17T23:06:15.226Z,11.80
2023-01-17T23:08:44.440Z,11.70
2023-01-17T23:11:40.798Z,11.70
2023-01-17T23:14:11.213Z,11.70
2023-01-17T23:16:57.350Z,11.60
2023-01-17T23:19:27.761Z,11.50
2023-01-17T23:22:14.439Z,11.50
2023-01-17T23:24:44.195Z,11.50
2023-01-17T23:27:30.860Z,11.50
2023-01-17T23:29:59.524Z,11.60
2023-01-17T23:32:28.268Z,11.60
2023-01-17T23:34:58.104Z,11.50
2023-01-17T23:37:46.331Z,11.60
2023-01-17T23:40:14.827Z,11.60
2023-01-17T23:43:00.252Z,11.60
2023-01-17T23:45:28.988Z,11.60
2023-01-17T23:47:57.337Z,11.70
2023-01-17T23:50:27.057Z,11.60
2023-01-17T23:52:55.804Z,11.60
2023-01-17T23:55:24.423Z,11.70
2023-01-17T23:57:52.944Z,11.70
